Laughlin Air Force Base
KDLF : rendu visible

Aérodrome :











RETROUVEZ-NOUS SUR...

 
LOGIN :

S'inscrire | Disclaimer

   EN    FR    IT 

 









Légende :    VFR   VFR Marginal   IFR   IFR Intensif   IFR Très Intensif
Visi : 
Plafond : 
>= 8 km
>= 3000ft
5 à 8 km
1000 à 3000 ft
1500m à 5 km
500 à 1000 ft
800 à 1500m
200 à 500 ft
< 800m
< 200 ft
Symboles :   Orages  Brouillard  Fortes neiges  Fortes précipitations  Vent > 20 kt






- Altitude de l'aérodrome : 1082 ft


KDLF - Laughlin Air Force Base

DERNIER METAR :
  • 282156Z AUTO 02005KT 10SM FEW060 FEW180 36/20 A2986 RMK AO2 LTG DSNT W-NW SLP098 T03590197 $

METARs EXPIRÉS :
  • 282056Z AUTO 02007KT 10SM CLR 35/20 A2986 RMK AO2 SLP098 T03480199 57023 $
  • 281956Z AUTO 11008KT 10SM CLR 34/21 A2987 RMK AO2 SLP101 T03380205 $
  • 281856Z AUTO 09008KT 10SM FEW180 FEW200 33/21 A2991 RMK AO2 SLP115 T03270205 $

TAF TAF KDLF
Valide du 28 à 19h jusqu'au 30 à 01h UTC


281900Z 2819/3001 13010G15KT 9999 FEW030 SCT200 QNH2986INS
BECMG 2822/2823 09012G18KT 8000 -SHRA VCTS BKN040CB BKN180 QNH2985INS
TEMPO 2900/2903 VRB30G45KT 4800 -TSRAGR OVC025CB
BECMG 2906/2907 06008KT 9999 VCSH SCT040 QNH2989INS
TEMPO 2909/2912 6000 -TSRA OVC030CB
BECMG 2914/2915 03006KT 9999 NSW BKN030 QNH2992INS
BECMG 2917/2918 08009KT 9999 SCT040 QNH2994INS TX34/2822Z TN22/2912Z
FIR KZHU / Amérique du Nord



MET'MAP, la Météo Aéronautique d'un coup d'oeil ! - Copyright ORBIFLY Décembre 2007 - Disclaimer

ORBIFLY MET'MAP TEAM :

Programmation & Développement : Alexandra Zaïnal
Sur une idée originale de : Baudouin d'Aumeries
Assistance à la programmation : Marc-Olivier Méhu
Soutien technique & logistique : Manuel Goepfert

Contact : metmap@orbifly.com




SOURCES & CREDITS :

   NOAA       Earth
Advisory